Pagina principale
METAR-TAF:

METAR-TAF

Aeroporti :

Linden, New Jersey, Stati Uniti

latitudine: 40-37-03N, longitudine: 074-14-40W, altezza: 7 m

Osservazione

Il bollettino è stato emesso 21 minuti fa, alle 07:35 UTC
Vento 6 kt da nord-ovest
Temperature 18°C
Umidità 64%
Pressione 1017 hPa
Visibilità: 16.1 km
Cielo sereno

METAR: KLDJ 240735Z AUTO 32006KT 10SM CLR 18/11 A3004 RMK AO2 T01800105

Ora: 03:56 (07:56 UTC)


TAF: mancante

Osservazioni e previsioni meteorologiche di più di 4000 aeroporti (messaggi METAR e TAF).

Le stazioni disponibili sono rappresentate dai dischi gialli e rossi sulla carta.

Puntare il mouse per vedere il nome della stazione.

Clicca sopra per visualizzare le osservazioni e previsioni meteorologiche.

Per cambiare la mappa : fare clic sui pulsanti verdi con una croce nera per ingrandire, il pulsante verde con un trattino per diminuire, o sulla freccia verde per le mappe adiacenti.


METAR-TAF: